Terminal Aerodrome Forecast
Issued by NWS

Home | Current Version | Previous Version | Text Only | Print | Product List | Glossary On
Versions: 1 2 3 4 5 6 7 8 9 10 11 12 13 14 15 16 17 18 19 20 21
732
FTUS43 KIND 301723
TAFBMG
TAF
KBMG 301723Z 3018/3118 27008KT P6SM VCSH SCT025 BKN040
     FM310200 29003KT P6SM SCT040
      TEMPO 3106/3109 4SM BR
     FM310900 29003KT 4SM BR BKN004 BKN040
      TEMPO 3110/3114 1 1/2SM BR
     FM311500 30007KT P6SM BKN015=

USA.gov is the U.S. government's official web portal to all federal, state and local government web resources and services.